Quenames — WTU9038 — position and weather

sailwx.info

Track history (hours):
 
Tides and Currents Weather Stations Pressure Air Temp Water Temp Dewpoint Dewpoint Depression Visibility Wind Speed Wind Dir Waves Ship Positions

Quenames

Owner: BOSTON MARINE TRANSPORT INC, Pelham, NH. More information available from US FCC via Universal Licensing System and Coast Guard Vessel Documentation Center.

Last reported at 2017-Mar-28 15:33 UTC. Time now 2017-Mar-28 16:00 UTC.
Position N 40°39' W 074°06'.

Length 23 m; draft 3 m.

Type: Tug. MMSI: 367022790.

Date/timePositionNaut miles runAvg speedWind from/ knotsBaromVisibWave heightAir tempDewpointWater temp
2017-Mar-28 15:33N 40°39' W 074°06'0 0.0
2017-Mar-28 14:33N 40°39' W 074°06'0 0.0
2017-Mar-28 13:33N 40°39' W 074°06'0 0.0
2017-Mar-28 12:33N 40°39' W 074°06'0 0.0
2017-Mar-28 11:33N 40°39' W 074°06'0 0.0
2017-Mar-28 10:33N 40°39' W 074°06'0 0.0
2017-Mar-28 09:33N 40°39' W 074°06'0 0.0
2017-Mar-28 08:33N 40°39' W 074°06'1 0.9
2017-Mar-28 07:33N 40°39' W 074°05'2 2.0
2017-Mar-28 06:33N 40°39' W 074°03'0 0.0
2017-Mar-28 05:33N 40°39' W 074°03'0 0.0
2017-Mar-28 04:33N 40°39' W 074°03'0 0.2
2017-Mar-28 03:33N 40°39' W 074°03'7 6.9
2017-Mar-28 02:33N 40°38' W 074°12'3 0.3
2017-Mar-27 16:33N 40°35' W 074°13'9 2.5
2017-Mar-27 13:03N 40°30' W 074°03'3 6.5
2017-Mar-27 12:33N 40°33' W 074°02'6 6.2
2017-Mar-27 11:33N 40°40' W 074°01'5 5.2
2017-Mar-27 10:33N 40°44' W 073°58'4 4.1
2017-Mar-27 09:33N 40°47' W 073°55'6 5.9
2017-Mar-27 08:29N 40°49' W 073°47'64 7.9
2017-Mar-27 00:25N 41°09' W 072°26'910.7
2017-Mar-26 23:33N 41°11' W 072°15'2 0.1
2017-Mar-25 07:25N 41°12' W 072°12'7 8.2
2017-Mar-25 06:33N 41°10' W 072°21'8 8.2
2017-Mar-25 05:33N 41°08' W 072°32'8 7.7
2017-Mar-25 04:30N 41°05' W 072°42'50 6.0
2017-Mar-24 20:08N 40°51' W 073°45'4 6.4
2017-Mar-24 19:26N 40°48' W 073°49'6 6.8
2017-Mar-24 18:33N 40°46' W 073°57'6 5.8
2017-Mar-24 17:33N 40°41' W 074°01'6 5.8
2017-Mar-24 16:33N 40°39' W 074°08'8 1.3
2017-Mar-24 10:10N 40°33' W 074°15'0 0.5
2017-Mar-24 09:27N 40°32' W 074°15'7 7.9
2017-Mar-24 08:33N 40°39' W 074°11'3 3.3
2017-Mar-24 07:33N 40°39' W 074°07'0 0.0
2017-Mar-24 06:33N 40°39' W 074°07'1 0.8
2017-Mar-24 05:33N 40°39' W 074°08'3 3.2
2017-Mar-24 04:33N 40°38' W 074°12'0 0.0
2017-Mar-24 03:33N 40°38' W 074°12'3 3.0
2017-Mar-24 02:33N 40°35' W 074°12'3 2.7
2017-Mar-24 01:21N 40°33' W 074°15'0 0.0
2017-Mar-24 00:28N 40°33' W 074°15'0 0.3
2017-Mar-23 23:33N 40°33' W 074°15'1 0.1
2017-Mar-23 19:12N 40°33' W 074°15'4 5.7
2017-Mar-23 18:32N 40°36' W 074°12'6 6.4
2017-Mar-23 17:33N 40°39' W 074°05'8 8.2
2017-Mar-23 16:33N 40°45' W 073°58'8 8.4
2017-Mar-23 15:33N 40°48' W 073°48'6 0.5
2017-Mar-23 04:12N 40°47' W 073°55'5 7.4
2017-Mar-23 03:33N 40°43' W 073°58'8 8.2
2017-Mar-23 02:33N 40°39' W 074°07'8 0.2
2017-Mar-20 23:04N 40°33' W 074°15'0 0.0
2017-Mar-20 22:33N 40°33' W 074°15'0 0.0
2017-Mar-19 12:27N 40°33' W 074°15'4 3.7
2017-Mar-19 11:29N 40°35' W 074°12'4 4.2
2017-Mar-19 10:32N 40°39' W 074°09'4 4.1
2017-Mar-19 09:33N 40°40' W 074°04'6 6.1
2017-Mar-19 08:33N 40°44' W 073°58'6 5.6
2017-Mar-19 07:31N 40°48' W 073°53'3 3.2
2017-Mar-19 06:33N 40°48' W 073°49'0 0.0
2017-Mar-19 05:33N 40°48' W 073°49'0 0.0
2017-Mar-19 04:28N 40°48' W 073°49'0 0.0
2017-Mar-19 03:31N 40°48' W 073°49'0 0.0
2017-Mar-19 02:31N 40°48' W 073°49'0 0.0
2017-Mar-19 01:33N 40°48' W 073°49'0 0.1
2017-Mar-19 00:33N 40°48' W 073°49'  
Track history (hours):
 
Tides and Currents Weather Stations Pressure Air Temp Water Temp Dewpoint Dewpoint Depression Visibility Wind Speed Wind Dir Waves Ship Positions

Quenames

Owner: BOSTON MARINE TRANSPORT INC, Pelham, NH. More information available from US FCC via Universal Licensing System and Coast Guard Vessel Documentation Center.

Last reported at 2017-Mar-28 15:33 UTC. Time now 2017-Mar-28 16:00 UTC.
Position N 40°39' W 074°06'.

Length 23 m; draft 3 m.

Type: Tug. MMSI: 367022790.

Date/timePositionNaut miles runAvg speedWind from/ knotsBaromVisibWave heightAir tempDewpointWater temp
2017-Mar-28 15:33N 40°39' W 074°06'0 0.0
2017-Mar-28 14:33N 40°39' W 074°06'0 0.0
2017-Mar-28 13:33N 40°39' W 074°06'0 0.0
2017-Mar-28 12:33N 40°39' W 074°06'0 0.0
2017-Mar-28 11:33N 40°39' W 074°06'0 0.0
2017-Mar-28 10:33N 40°39' W 074°06'0 0.0
2017-Mar-28 09:33N 40°39' W 074°06'0 0.0
2017-Mar-28 08:33N 40°39' W 074°06'1 0.9
2017-Mar-28 07:33N 40°39' W 074°05'2 2.0
2017-Mar-28 06:33N 40°39' W 074°03'0 0.0
2017-Mar-28 05:33N 40°39' W 074°03'0 0.0
2017-Mar-28 04:33N 40°39' W 074°03'0 0.2
2017-Mar-28 03:33N 40°39' W 074°03'7 6.9
2017-Mar-28 02:33N 40°38' W 074°12'3 0.3
2017-Mar-27 16:33N 40°35' W 074°13'9 2.5
2017-Mar-27 13:03N 40°30' W 074°03'3 6.5
2017-Mar-27 12:33N 40°33' W 074°02'6 6.2
2017-Mar-27 11:33N 40°40' W 074°01'5 5.2
2017-Mar-27 10:33N 40°44' W 073°58'4 4.1
2017-Mar-27 09:33N 40°47' W 073°55'6 5.9
2017-Mar-27 08:29N 40°49' W 073°47'64 7.9
2017-Mar-27 00:25N 41°09' W 072°26'910.7
2017-Mar-26 23:33N 41°11' W 072°15'2 0.1
2017-Mar-25 07:25N 41°12' W 072°12'7 8.2
2017-Mar-25 06:33N 41°10' W 072°21'8 8.2
2017-Mar-25 05:33N 41°08' W 072°32'8 7.7
2017-Mar-25 04:30N 41°05' W 072°42'50 6.0
2017-Mar-24 20:08N 40°51' W 073°45'4 6.4
2017-Mar-24 19:26N 40°48' W 073°49'6 6.8
2017-Mar-24 18:33N 40°46' W 073°57'6 5.8
2017-Mar-24 17:33N 40°41' W 074°01'6 5.8
2017-Mar-24 16:33N 40°39' W 074°08'8 1.3
2017-Mar-24 10:10N 40°33' W 074°15'0 0.5
2017-Mar-24 09:27N 40°32' W 074°15'7 7.9
2017-Mar-24 08:33N 40°39' W 074°11'3 3.3
2017-Mar-24 07:33N 40°39' W 074°07'0 0.0
2017-Mar-24 06:33N 40°39' W 074°07'1 0.8
2017-Mar-24 05:33N 40°39' W 074°08'3 3.2
2017-Mar-24 04:33N 40°38' W 074°12'0 0.0
2017-Mar-24 03:33N 40°38' W 074°12'3 3.0
2017-Mar-24 02:33N 40°35' W 074°12'3 2.7
2017-Mar-24 01:21N 40°33' W 074°15'0 0.0
2017-Mar-24 00:28N 40°33' W 074°15'0 0.3
2017-Mar-23 23:33N 40°33' W 074°15'1 0.1
2017-Mar-23 19:12N 40°33' W 074°15'4 5.7
2017-Mar-23 18:32N 40°36' W 074°12'6 6.4
2017-Mar-23 17:33N 40°39' W 074°05'8 8.2
2017-Mar-23 16:33N 40°45' W 073°58'8 8.4
2017-Mar-23 15:33N 40°48' W 073°48'6 0.5
2017-Mar-23 04:12N 40°47' W 073°55'5 7.4
2017-Mar-23 03:33N 40°43' W 073°58'8 8.2
2017-Mar-23 02:33N 40°39' W 074°07'8 0.2
2017-Mar-20 23:04N 40°33' W 074°15'0 0.0
2017-Mar-20 22:33N 40°33' W 074°15'0 0.0
2017-Mar-19 12:27N 40°33' W 074°15'4 3.7
2017-Mar-19 11:29N 40°35' W 074°12'4 4.2
2017-Mar-19 10:32N 40°39' W 074°09'4 4.1
2017-Mar-19 09:33N 40°40' W 074°04'6 6.1
2017-Mar-19 08:33N 40°44' W 073°58'6 5.6
2017-Mar-19 07:31N 40°48' W 073°53'3 3.2
2017-Mar-19 06:33N 40°48' W 073°49'0 0.0
2017-Mar-19 05:33N 40°48' W 073°49'0 0.0
2017-Mar-19 04:28N 40°48' W 073°49'0 0.0
2017-Mar-19 03:31N 40°48' W 073°49'0 0.0
2017-Mar-19 02:31N 40°48' W 073°49'0 0.0
2017-Mar-19 01:33N 40°48' W 073°49'0 0.1
2017-Mar-19 00:33N 40°48' W 073°49'  

Dump ship's entire track history